Report METAR

 

LIQW - Sarzana
Dati ricevuti: 18/06/2021 09:55
Sereno
Sereno
 Vento da NO
Vento: NO 7 km/h
Temperatura: 24°C
P.to Rugiada: 17°C
Umidità: 65%
Barometro: 1017 hPa
Summary: Sereno
Visibility: superiore a 10 km
2021/06/18 07:55 LIQW 180755Z 31004KT CAVOK 24/17 Q1017
LIRP - Pisa
Dati ricevuti: 18/06/2021 09:45
Sereno
Sereno
 Vento da ESE
Vento: ESE 15 km/h
Temperatura: 24°C
P.to Rugiada: 16°C
Umidità: 61%
Barometro: 1018 hPa
Summary: Sereno
Visibility: superiore a 10 km
2021/06/18 07:45 LIRP 180745Z 12008KT CAVOK 24/16 Q1018 NOSIG
 
LIRQ - Firenze
Dati ricevuti: 18/06/2021 09:50
Sereno
Sereno
 Vento da O
Vento: O 6 km/h
Temperatura: 24°C
P.to Rugiada: 18°C
Umidità: 69%
Barometro: 1019 hPa
Summary: Sereno
Visibility: superiore a 10 km
2021/06/18 07:50 LIRQ 180750Z 28003KT 220V020 CAVOK 24/18 Q1019